Time;durP1;ratioP1;P1;durP2;ratioP2;P2;SDS_P1;SDS_P2;PMS_P1;PMS_P2;Temp;Humidity;BMP_temperature;BMP_pressure;BME280_temperature;BME280_humidity;BME280_pressure;Samples;Min_cycle;Max_cycle;Signal;HPM_P1;HPM_P2
2022/05/22 00:01:14;;;;;;;6.97;4.00;;;10.10;99.90;;;;;;4954973;28;20047;-80
2022/05/22 00:03:40;;;;;;;6.25;3.63;;;10.00;99.90;;;;;;4939477;28;20093;-81
2022/05/22 00:06:05;;;;;;;6.20;3.90;;;10.00;99.90;;;;;;4955614;28;20050;-81
2022/05/22 00:08:31;;;;;;;8.10;4.03;;;10.00;99.90;;;;;;4955081;28;20101;-81
2022/05/22 00:10:56;;;;;;;8.55;4.25;;;10.00;99.90;;;;;;4938802;28;20050;-80
2022/05/22 00:13:22;;;;;;;11.88;4.38;;;10.00;99.90;;;;;;4954931;28;20109;-81
2022/05/22 00:18:32;;;;;;;11.98;4.45;;;9.90;99.90;;;;;;4955223;28;20077;-81
2022/05/22 00:20:58;;;;;;;5.80;3.88;;;9.90;99.90;;;;;;4954730;28;20046;-81
2022/05/22 00:23:24;;;;;;;6.32;4.35;;;9.80;99.90;;;;;;4955223;28;20041;-81
2022/05/22 00:25:49;;;;;;;5.88;3.97;;;9.80;99.90;;;;;;4954943;28;20050;-81
2022/05/22 00:28:15;;;;;;;8.30;4.72;;;9.70;99.90;;;;;;4955319;28;20046;-81
2022/05/22 00:30:41;;;;;;;11.13;3.95;;;9.80;99.90;;;;;;4954878;28;20078;-81
2022/05/22 00:33:06;;;;;;;9.63;3.70;;;9.70;99.90;;;;;;4958294;28;20038;-81
2022/05/22 00:35:32;;;;;;;8.30;4.10;;;9.70;99.90;;;;;;4958486;28;20047;-81
2022/05/22 00:37:58;;;;;;;10.57;4.70;;;9.70;99.90;;;;;;4958746;28;20471;-81
2022/05/22 00:40:23;;;;;;;11.43;4.10;;;9.70;99.90;;;;;;4958445;28;20562;-81
2022/05/22 00:42:50;;;;;;;12.38;4.93;;;9.70;99.90;;;;;;4958262;28;20043;-81
2022/05/22 00:45:16;;;;;;;10.32;4.70;;;9.70;99.90;;;;;;4942129;28;20072;-81
2022/05/22 00:47:41;;;;;;;7.20;4.10;;;9.70;99.90;;;;;;4958267;28;20035;-81
2022/05/22 00:50:07;;;;;;;7.97;4.38;;;9.70;99.90;;;;;;4958917;28;20350;-82
2022/05/22 00:52:39;;;;;;;8.43;4.22;;;9.70;99.90;;;;;;4943022;28;20031;-82
2022/05/22 00:55:12;;;;;;;10.15;5.13;;;9.70;99.90;;;;;;4943122;28;20049;-82
2022/05/22 00:57:46;;;;;;;7.65;4.18;;;9.60;99.90;;;;;;4943074;28;20125;-82
2022/05/22 01:00:16;;;;;;;8.38;4.20;;;9.70;99.90;;;;;;4958803;28;20503;-82
2022/05/22 01:05:26;;;;;;;11.40;4.93;;;9.60;99.90;;;;;;4959132;28;20058;-82
2022/05/22 01:07:52;;;;;;;7.28;3.97;;;9.60;99.90;;;;;;4958881;28;20169;-82
2022/05/22 01:10:19;;;;;;;12.48;4.35;;;9.60;99.90;;;;;;4958438;28;20042;-82
2022/05/22 01:12:46;;;;;;;10.80;4.38;;;9.60;99.90;;;;;;4958502;28;20049;-82
2022/05/22 01:15:13;;;;;;;8.25;4.07;;;9.60;99.90;;;;;;4958810;28;20498;-82
2022/05/22 01:17:45;;;;;;;11.00;4.40;;;9.50;99.90;;;;;;4942239;28;20046;-82
2022/05/22 01:20:11;;;;;;;10.45;3.70;;;9.50;99.90;;;;;;4942300;28;20060;-82
2022/05/22 01:22:38;;;;;;;8.95;4.82;;;9.50;99.90;;;;;;4958179;28;20099;-81
2022/05/22 01:25:05;;;;;;;5.50;3.95;;;9.40;99.90;;;;;;4942129;28;20050;-82
2022/05/22 01:27:32;;;;;;;7.72;3.78;;;9.40;99.90;;;;;;4942244;28;20046;-81
2022/05/22 01:30:13;;;;;;;10.75;4.85;;;9.30;99.90;;;;;;4958168;28;20050;-81
2022/05/22 01:32:42;;;;;;;12.40;4.30;;;9.30;99.90;;;;;;4963049;28;20058;-81
2022/05/22 01:35:09;;;;;;;11.25;4.07;;;9.20;99.90;;;;;;4983435;28;20058;-82
2022/05/22 01:37:35;;;;;;;5.93;3.90;;;9.30;99.90;;;;;;4967353;28;20051;-81
2022/05/22 01:40:00;;;;;;;8.70;3.83;;;9.20;99.90;;;;;;4940157;28;20035;-82
2022/05/22 01:42:28;;;;;;;9.98;4.03;;;9.30;99.90;;;;;;4956375;28;20111;-82
2022/05/22 01:44:53;;;;;;;7.93;3.63;;;9.20;99.90;;;;;;4940145;28;20046;-82
2022/05/22 01:47:19;;;;;;;8.25;3.92;;;9.20;99.90;;;;;;4956911;28;20559;-82
2022/05/22 01:49:44;;;;;;;6.93;4.78;;;9.20;99.90;;;;;;4956394;28;20047;-82
2022/05/22 01:52:10;;;;;;;7.18;3.80;;;9.20;99.90;;;;;;4956570;28;20048;-82
2022/05/22 01:54:35;;;;;;;8.43;4.38;;;9.10;99.90;;;;;;4956349;28;20413;-82
2022/05/22 01:57:01;;;;;;;13.73;4.65;;;9.20;99.90;;;;;;4956393;28;20462;-82
2022/05/22 01:59:27;;;;;;;7.45;4.18;;;9.20;99.90;;;;;;4973860;28;20099;-82
2022/05/22 02:01:52;;;;;;;13.95;4.68;;;9.10;99.90;;;;;;4956545;28;20031;-82
2022/05/22 02:04:18;;;;;;;10.65;4.10;;;9.10;99.90;;;;;;4956580;28;20089;-82
2022/05/22 02:09:28;;;;;;;8.73;3.85;;;9.10;99.90;;;;;;4955924;28;20058;-82
2022/05/22 02:11:54;;;;;;;7.28;4.35;;;9.10;99.90;;;;;;4956193;28;20046;-82
2022/05/22 02:14:20;;;;;;;7.72;4.43;;;9.00;99.90;;;;;;4956481;28;20402;-82
2022/05/22 02:16:45;;;;;;;9.68;4.47;;;9.00;99.90;;;;;;4973636;28;20553;-82
2022/05/22 02:19:11;;;;;;;6.20;4.13;;;9.00;99.90;;;;;;4956582;28;20078;-82
2022/05/22 02:21:37;;;;;;;8.52;4.20;;;9.00;99.90;;;;;;4939745;28;20049;-82
2022/05/22 02:24:03;;;;;;;6.45;4.15;;;8.90;99.90;;;;;;4956005;28;20050;-80
2022/05/22 02:26:29;;;;;;;9.30;3.83;;;8.90;99.90;;;;;;4956270;28;20129;-81
2022/05/22 02:28:54;;;;;;;12.60;4.38;;;8.80;99.90;;;;;;4956293;28;20081;-81
2022/05/22 02:31:20;;;;;;;9.43;4.10;;;8.80;99.90;;;;;;4956091;28;20046;-81
2022/05/22 02:33:45;;;;;;;5.10;4.55;;;8.70;99.90;;;;;;4956173;28;20045;-81
2022/05/22 02:36:13;;;;;;;8.70;4.22;;;8.70;99.90;;;;;;4956331;28;20410;-80
2022/05/22 02:38:40;;;;;;;6.45;3.90;;;8.60;99.90;;;;;;4939987;28;20053;-81
2022/05/22 02:41:15;;;;;;;11.52;3.95;;;8.60;99.90;;;;;;4939742;28;20576;-81
2022/05/22 02:43:41;;;;;;;6.60;4.13;;;8.50;99.90;;;;;;4939934;28;20501;-81
2022/05/22 02:46:11;;;;;;;7.35;3.22;;;8.60;99.90;;;;;;4940521;28;20042;-81
2022/05/22 02:48:37;;;;;;;4.78;3.42;;;8.60;99.90;;;;;;4955646;28;20047;-81
2022/05/22 02:51:03;;;;;;;5.32;3.03;;;8.40;99.90;;;;;;4939503;28;20494;-81
2022/05/22 02:53:28;;;;;;;5.35;3.05;;;8.40;99.90;;;;;;4939853;28;20046;-81
2022/05/22 02:55:54;;;;;;;6.65;3.55;;;8.40;99.90;;;;;;4955121;28;20106;-81
2022/05/22 02:58:20;;;;;;;6.38;3.42;;;8.30;99.90;;;;;;4939700;28;20043;-81
2022/05/22 03:00:45;;;;;;;5.68;3.17;;;8.30;99.90;;;;;;4955623;28;20055;-81
2022/05/22 03:03:11;;;;;;;6.15;3.83;;;8.30;99.90;;;;;;4939730;28;20509;-81
2022/05/22 03:08:20;;;;;;;5.32;3.45;;;8.30;99.90;;;;;;4956451;28;20061;-82
2022/05/22 03:10:46;;;;;;;5.95;4.15;;;8.40;99.90;;;;;;4956085;28;20038;-81
2022/05/22 03:13:13;;;;;;;8.95;3.45;;;8.40;99.90;;;;;;4956672;28;20190;-82
2022/05/22 03:15:39;;;;;;;4.90;4.00;;;8.30;99.90;;;;;;4940397;28;20047;-82
2022/05/22 03:18:06;;;;;;;8.65;3.67;;;8.30;99.90;;;;;;4956227;28;20500;-82
2022/05/22 03:20:33;;;;;;;5.40;2.75;;;8.30;99.90;;;;;;4940360;28;20038;-82
2022/05/22 03:22:58;;;;;;;6.80;2.80;;;8.30;99.90;;;;;;4956303;28;20843;-82
2022/05/22 03:25:25;;;;;;;4.80;2.63;;;8.20;99.90;;;;;;4956226;28;20138;-81
2022/05/22 03:27:50;;;;;;;6.05;4.03;;;8.20;99.90;;;;;;4956311;28;20482;-82
2022/05/22 03:30:16;;;;;;;5.88;3.08;;;8.20;99.90;;;;;;4956174;28;20101;-81
2022/05/22 03:32:42;;;;;;;7.97;2.72;;;8.30;99.90;;;;;;4940088;28;20057;-82
2022/05/22 03:35:08;;;;;;;4.63;3.00;;;8.20;99.90;;;;;;4956332;28;20047;-81
2022/05/22 03:37:33;;;;;;;3.70;2.55;;;8.20;99.90;;;;;;4956718;28;20049;-81
2022/05/22 03:39:59;;;;;;;3.85;2.80;;;8.20;99.90;;;;;;4956564;28;20074;-81
2022/05/22 03:42:24;;;;;;;4.45;2.53;;;8.20;99.90;;;;;;4956518;28;20101;-82
2022/05/22 03:44:52;;;;;;;5.80;3.35;;;8.20;99.90;;;;;;4940684;28;20047;-82
2022/05/22 03:47:17;;;;;;;4.57;3.53;;;8.20;99.90;;;;;;4956045;28;20050;-80
2022/05/22 03:49:43;;;;;;;4.53;2.78;;;8.20;99.90;;;;;;4939270;28;20046;-81
2022/05/22 03:52:08;;;;;;;4.82;3.08;;;8.20;99.90;;;;;;4940022;28;20043;-81
2022/05/22 03:54:34;;;;;;;6.20;3.35;;;8.20;99.90;;;;;;4939533;28;20490;-81
2022/05/22 03:56:59;;;;;;;6.35;3.28;;;8.30;99.90;;;;;;4955575;28;20038;-80
2022/05/22 03:59:25;;;;;;;4.72;3.42;;;8.30;99.90;;;;;;4955277;28;20395;-81
2022/05/22 04:01:51;;;;;;;6.40;3.40;;;8.30;99.90;;;;;;4954981;28;20623;-81
2022/05/22 04:04:17;;;;;;;6.38;3.60;;;8.30;99.90;;;;;;4955720;28;20150;-81
2022/05/22 04:06:42;;;;;;;4.30;2.88;;;8.30;99.90;;;;;;4956307;28;20498;-81
2022/05/22 04:09:08;;;;;;;5.45;3.22;;;8.30;99.90;;;;;;4958859;28;20454;-81
2022/05/22 04:11:34;;;;;;;6.45;3.80;;;8.30;99.90;;;;;;4942730;28;20458;-81
2022/05/22 04:14:02;;;;;;;7.97;3.70;;;8.30;99.90;;;;;;4958746;28;20565;-80
2022/05/22 04:16:27;;;;;;;4.78;3.72;;;8.30;99.90;;;;;;4958804;28;20053;-81
2022/05/22 04:18:53;;;;;;;5.82;3.25;;;8.40;99.90;;;;;;4958735;28;20053;-81
2022/05/22 04:21:18;;;;;;;8.70;4.53;;;8.40;99.90;;;;;;4942443;28;20065;-81
2022/05/22 04:26:30;;;;;;;5.03;3.10;;;8.70;99.90;;;;;;4960015;28;20113;-82
2022/05/22 04:28:56;;;;;;;5.65;3.63;;;8.70;99.90;;;;;;4960633;28;20676;-81
2022/05/22 04:31:21;;;;;;;7.53;3.05;;;8.90;99.90;;;;;;4943664;28;20074;-81
2022/05/22 04:33:47;;;;;;;5.25;3.42;;;9.10;99.90;;;;;;4959984;28;20049;-81
2022/05/22 04:36:12;;;;;;;8.43;3.50;;;9.20;99.90;;;;;;4960457;28;20413;-81
2022/05/22 04:38:38;;;;;;;8.32;3.65;;;9.30;99.90;;;;;;4961035;28;20149;-81
2022/05/22 04:41:03;;;;;;;4.88;3.60;;;9.30;99.90;;;;;;4960328;28;20049;-82
2022/05/22 04:43:31;;;;;;;6.63;3.53;;;9.30;99.90;;;;;;4960911;28;20125;-81
2022/05/22 04:45:57;;;;;;;5.68;3.83;;;9.30;99.90;;;;;;4962079;28;20039;-80
2022/05/22 04:48:24;;;;;;;5.05;3.58;;;9.30;99.90;;;;;;4985022;28;20034;-83
2022/05/22 04:50:51;;;;;;;6.22;3.65;;;9.40;99.90;;;;;;4983801;28;20023;-82
2022/05/22 04:53:19;;;;;;;5.57;3.50;;;9.40;99.90;;;;;;4945423;28;20506;-82
2022/05/22 04:55:46;;;;;;;4.85;3.80;;;9.50;99.90;;;;;;4941880;28;20446;-82
2022/05/22 04:58:12;;;;;;;8.45;4.32;;;9.60;99.90;;;;;;4957375;28;20043;-82
2022/05/22 05:00:38;;;;;;;9.02;3.40;;;9.90;99.90;;;;;;4957319;28;20454;-82
2022/05/22 05:03:04;;;;;;;5.53;4.03;;;10.30;99.90;;;;;;4957428;28;20053;-81
2022/05/22 05:05:29;;;;;;;6.68;3.83;;;10.80;99.90;;;;;;4957722;28;20043;-81
2022/05/22 05:07:55;;;;;;;4.75;3.50;;;11.40;99.90;;;;;;4957785;28;20471;-81
2022/05/22 05:10:21;;;;;;;6.72;3.88;;;11.90;99.90;;;;;;4957389;28;20039;-81
2022/05/22 05:12:47;;;;;;;8.52;3.90;;;12.40;99.90;;;;;;4957413;28;20041;-81
2022/05/22 05:15:16;;;;;;;6.20;3.40;;;12.90;99.90;;;;;;4957576;28;20038;-81
2022/05/22 05:17:43;;;;;;;7.97;3.47;;;13.50;99.90;;;;;;4956884;28;20490;-82
2022/05/22 05:20:09;;;;;;;7.70;3.88;;;13.80;99.90;;;;;;4941271;28;20042;-82
2022/05/22 05:22:35;;;;;;;5.70;3.47;;;14.10;99.90;;;;;;4941672;28;20133;-82
2022/05/22 05:25:01;;;;;;;9.10;4.43;;;14.40;99.90;;;;;;4957597;28;20118;-82
2022/05/22 05:27:27;;;;;;;7.40;4.20;;;14.70;99.90;;;;;;4941272;28;20051;-82
2022/05/22 05:29:52;;;;;;;6.45;4.20;;;14.90;99.90;;;;;;4941275;28;20042;-82
2022/05/22 05:32:19;;;;;;;11.88;4.40;;;15.20;99.90;;;;;;4957189;28;20035;-83
2022/05/22 05:34:44;;;;;;;10.13;5.03;;;15.40;99.90;;;;;;4957331;28;20035;-83
2022/05/22 05:37:10;;;;;;;9.93;4.18;;;15.70;99.90;;;;;;4957446;28;20049;-83
2022/05/22 05:39:36;;;;;;;9.90;3.80;;;16.10;99.90;;;;;;4941259;28;20043;-82
2022/05/22 05:42:02;;;;;;;7.97;3.35;;;16.40;99.90;;;;;;4941113;28;20043;-82
2022/05/22 05:44:28;;;;;;;6.80;3.17;;;16.60;99.90;;;;;;4957567;28;20043;-82
2022/05/22 05:46:54;;;;;;;11.77;3.38;;;16.80;99.90;;;;;;4957162;28;20194;-83
2022/05/22 05:49:19;;;;;;;9.55;3.75;;;17.10;99.90;;;;;;4956971;28;20043;-82
2022/05/22 05:51:45;;;;;;;10.70;3.25;;;17.20;99.90;;;;;;4941252;28;20117;-82
2022/05/22 05:54:11;;;;;;;10.43;3.35;;;17.40;99.90;;;;;;4940758;28;20038;-82
2022/05/22 05:56:38;;;;;;;9.45;3.30;;;17.70;99.90;;;;;;4957225;28;20046;-82
2022/05/22 05:59:04;;;;;;;7.80;3.28;;;18.00;99.90;;;;;;4957291;28;20046;-83
2022/05/22 06:01:30;;;;;;;7.40;2.88;;;18.10;99.90;;;;;;4956745;28;20043;-82
2022/05/22 06:03:56;;;;;;;7.38;3.30;;;18.20;99.90;;;;;;4940712;28;20367;-82
2022/05/22 06:06:21;;;;;;;8.75;3.03;;;18.40;99.90;;;;;;4956614;28;20417;-82
2022/05/22 06:08:47;;;;;;;8.13;2.88;;;18.50;99.90;;;;;;4956620;28;20043;-83
2022/05/22 06:11:13;;;;;;;7.88;3.13;;;18.60;99.90;;;;;;4972634;28;20129;-83
2022/05/22 06:13:41;;;;;;;8.02;3.03;;;18.80;99.90;;;;;;4956908;28;20035;-82
2022/05/22 06:16:08;;;;;;;6.28;3.03;;;19.00;99.90;;;;;;4941130;28;20053;-83
2022/05/22 06:18:34;;;;;;;5.57;3.30;;;19.20;99.90;;;;;;4940795;28;20046;-83
2022/05/22 06:21:09;;;;;;;7.75;2.92;;;19.20;99.90;;;;;;4942578;28;20041;-83
2022/05/22 06:23:35;;;;;;;8.57;3.00;;;19.40;99.90;;;;;;4961770;28;20122;-82
2022/05/22 06:26:01;;;;;;;10.48;3.40;;;19.40;99.90;;;;;;4941423;28;20413;-81
2022/05/22 06:28:26;;;;;;;9.07;2.83;;;19.50;99.90;;;;;;4940696;28;20042;-81
2022/05/22 06:30:52;;;;;;;7.57;3.00;;;19.50;99.90;;;;;;4940142;28;20494;-80
2022/05/22 06:33:19;;;;;;;7.03;3.47;;;19.60;99.90;;;;;;4957087;28;20035;-80
2022/05/22 06:35:46;;;;;;;7.18;3.75;;;19.80;99.90;;;;;;4943046;28;20405;-82
2022/05/22 06:40:56;;;;;;;11.57;3.25;;;19.90;99.90;;;;;;4958350;28;20759;-81
2022/05/22 06:43:22;;;;;;;13.77;3.55;;;20.00;99.90;;;;;;4941753;28;20065;-80
2022/05/22 06:45:50;;;;;;;8.90;3.95;;;20.00;99.90;;;;;;4942282;28;20495;-80
2022/05/22 06:48:16;;;;;;;10.82;3.40;;;20.10;99.90;;;;;;4957953;28;20046;-81
2022/05/22 06:50:44;;;;;;;5.03;2.47;;;20.10;99.90;;;;;;4957906;28;20066;-81
2022/05/22 06:53:10;;;;;;;9.20;2.80;;;20.20;99.90;;;;;;4956697;28;20099;-80
2022/05/22 06:55:36;;;;;;;11.13;2.97;;;20.30;99.90;;;;;;4956775;28;20450;-81
2022/05/22 06:58:01;;;;;;;7.03;3.20;;;20.50;99.90;;;;;;4956397;28;20065;-81
2022/05/22 07:00:27;;;;;;;9.05;3.22;;;20.50;99.90;;;;;;4940368;28;20516;-81
2022/05/22 07:02:54;;;;;;;8.07;2.80;;;20.60;99.90;;;;;;4956406;28;20087;-81
2022/05/22 07:05:20;;;;;;;9.80;3.40;;;20.60;99.90;;;;;;4939940;28;20051;-81
2022/05/22 07:07:46;;;;;;;10.48;3.35;;;20.80;99.90;;;;;;4955660;28;20042;-81
2022/05/22 07:10:12;;;;;;;7.72;2.47;;;21.00;99.90;;;;;;4956141;28;20042;-81
2022/05/22 07:12:38;;;;;;;9.07;3.35;;;21.10;99.90;;;;;;4939650;28;20053;-81
2022/05/22 07:15:04;;;;;;;5.68;2.00;;;21.20;99.90;;;;;;4939845;28;20043;-81
2022/05/22 07:17:30;;;;;;;10.20;3.03;;;21.40;99.90;;;;;;4956271;28;20039;-81
2022/05/22 07:19:56;;;;;;;10.05;3.28;;;21.50;99.90;;;;;;4939827;28;20410;-81
2022/05/22 07:22:23;;;;;;;7.72;2.60;;;21.60;99.90;;;;;;4939754;28;20113;-82
2022/05/22 07:24:51;;;;;;;10.88;3.28;;;21.60;99.90;;;;;;4955512;28;20046;-79
2022/05/22 07:27:17;;;;;;;9.00;2.22;;;21.50;99.90;;;;;;4939861;28;20545;-80
2022/05/22 07:29:42;;;;;;;9.88;2.13;;;21.60;99.90;;;;;;4955412;28;20109;-80
2022/05/22 07:32:09;;;;;;;9.75;2.75;;;21.70;99.90;;;;;;4955632;28;20117;-79
2022/05/22 07:34:34;;;;;;;7.28;1.92;;;21.90;99.90;;;;;;4955397;28;20082;-79
2022/05/22 07:37:06;;;;;;;8.25;2.22;;;21.80;99.90;;;;;;4955628;28;20081;-79
2022/05/22 07:39:32;;;;;;;6.55;1.73;;;21.80;99.90;;;;;;4955382;28;20387;-79
2022/05/22 07:41:57;;;;;;;8.02;2.13;;;21.70;99.90;;;;;;4957655;28;20051;-79
2022/05/22 07:44:23;;;;;;;6.95;2.13;;;21.90;99.90;;;;;;4943490;28;20050;-78
2022/05/22 07:46:49;;;;;;;8.57;2.38;;;22.10;99.90;;;;;;4959634;28;20046;-80
2022/05/22 07:50:16;;;;;;;8.15;2.00;;;22.20;99.90;;;;;;4961144;28;20055;-80
2022/05/22 07:52:07;;;;;;;9.88;2.05;;;22.40;99.90;;;;;;4977310;28;20042;-81
2022/05/22 07:54:34;;;;;;;10.02;2.25;;;22.50;97.10;;;;;;4945048;28;20054;-80
2022/05/22 07:57:00;;;;;;;9.40;3.05;;;22.40;99.90;;;;;;4945016;28;20042;-81
2022/05/22 07:59:26;;;;;;;7.13;1.85;;;22.30;99.90;;;;;;4959697;28;20096;-81
2022/05/22 08:01:51;;;;;;;6.35;1.80;;;22.30;99.90;;;;;;4944580;28;20457;-80
2022/05/22 08:04:17;;;;;;;10.18;1.85;;;22.30;99.90;;;;;;4944404;28;20089;-80
2022/05/22 08:06:42;;;;;;;6.25;1.98;;;22.30;99.90;;;;;;4945229;28;20185;-81
2022/05/22 08:09:08;;;;;;;5.90;1.70;;;22.30;99.90;;;;;;4959478;28;20047;-81
2022/05/22 08:11:33;;;;;;;6.18;1.70;;;22.40;99.90;;;;;;4960459;28;20061;-79
2022/05/22 08:13:59;;;;;;;9.88;2.40;;;22.40;99.90;;;;;;4944900;28;20129;-80
2022/05/22 08:16:25;;;;;;;3.65;1.52;;;22.50;99.90;;;;;;4944130;28;20035;-81
2022/05/22 08:18:51;;;;;;;6.13;1.77;;;22.70;99.30;;;;;;4943829;28;20038;-80
2022/05/22 08:21:17;;;;;;;10.15;1.95;;;22.50;99.80;;;;;;4943492;28;20051;-81
2022/05/22 08:23:43;;;;;;;9.88;1.88;;;22.70;98.50;;;;;;4962237;28;20043;-79
2022/05/22 08:26:08;;;;;;;4.85;1.00;;;22.80;97.70;;;;;;4968112;28;20054;-78
2022/05/22 08:28:35;;;;;;;7.03;1.27;;;22.60;96.60;;;;;;4969026;28;20039;-81
2022/05/22 08:31:00;;;;;;;6.45;1.45;;;22.60;95.60;;;;;;4983334;28;20070;-82
2022/05/22 08:33:26;;;;;;;5.45;1.67;;;22.60;95.20;;;;;;4950149;28;20062;-80
2022/05/22 08:35:52;;;;;;;4.35;1.30;;;22.60;95.90;;;;;;4958533;28;20050;-80
2022/05/22 08:38:17;;;;;;;5.35;1.25;;;22.70;95.70;;;;;;4960287;28;20188;-80
2022/05/22 08:41:10;;;;;;;4.85;1.65;;;22.90;95.60;;;;;;4958621;28;20126;-81
2022/05/22 08:43:46;;;;;;;5.88;1.73;;;22.90;91.20;;;;;;4943878;28;20038;-80
2022/05/22 08:46:32;;;;;;;5.13;1.48;;;22.90;93.60;;;;;;4943189;28;20039;-82
2022/05/22 08:49:02;;;;;;;7.35;1.80;;;22.90;90.90;;;;;;4960612;28;20530;-81
2022/05/22 08:51:40;;;;;;;5.80;1.52;;;22.90;93.60;;;;;;4942595;28;20047;-80
2022/05/22 08:54:31;;;;;;;7.20;1.55;;;22.90;88.10;;;;;;4942404;28;20384;-81
2022/05/22 08:59:48;;;;;;;4.30;1.52;;;22.80;94.60;;;;;;4958372;28;20050;-80
2022/05/22 09:02:19;;;;;;;9.83;2.10;;;22.90;92.60;;;;;;4943341;28;20055;-79
2022/05/22 09:04:48;;;;;;;;;;;22.90;93.30;;;;;;4942951;28;20282;-81
2022/05/22 09:07:29;;;;;;;6.95;1.60;;;22.80;88.20;;;;;;4941709;28;19951;-81
2022/05/22 09:10:06;;;;;;;4.97;1.60;;;22.80;90.90;;;;;;4941727;28;20050;-81
2022/05/22 09:12:41;;;;;;;4.88;1.73;;;22.60;95.80;;;;;;4942767;28;20054;-81
2022/05/22 09:15:23;;;;;;;5.68;1.63;;;22.50;95.20;;;;;;4944387;28;20039;-80
2022/05/22 09:18:00;;;;;;;11.00;2.38;;;22.90;92.10;;;;;;4941940;28;20042;-81
2022/05/22 09:20:55;;;;;;;8.55;1.52;;;22.90;92.30;;;;;;4942656;28;20093;-81
2022/05/22 09:23:41;;;;;;;8.35;1.52;;;23.10;77.00;;;;;;4942174;28;20043;-79
2022/05/22 09:26:10;;;;;;;6.97;1.42;;;22.90;90.10;;;;;;4941418;28;20058;-80
2022/05/22 09:28:55;;;;;;;7.53;1.45;;;22.80;90.50;;;;;;4941138;28;20057;-80
2022/05/22 09:31:30;;;;;;;4.70;1.23;;;22.70;85.50;;;;;;4957136;28;20402;-80
2022/05/22 09:34:07;;;;;;;6.50;1.70;;;22.50;90.80;;;;;;4941117;28;20686;-79
2022/05/22 09:36:57;;;;;;;6.20;1.88;;;22.50;82.70;;;;;;4941014;28;20127;-80
2022/05/22 09:39:40;;;;;;;5.20;1.48;;;22.60;90.30;;;;;;4940637;28;20049;-79
2022/05/22 09:42:13;;;;;;;9.10;1.38;;;22.80;82.80;;;;;;4940413;28;20069;-79
2022/05/22 09:45:06;;;;;;;6.45;1.65;;;22.80;87.30;;;;;;4956802;28;20062;-80
2022/05/22 09:47:37;;;;;;;8.35;2.10;;;23.00;89.60;;;;;;4941249;28;20109;-80
2022/05/22 09:50:16;;;;;;;7.90;2.42;;;22.80;85.70;;;;;;4941167;28;20050;-80
2022/05/22 09:53:18;;;;;;;6.93;1.67;;;22.90;77.00;;;;;;4956921;28;20078;-80
2022/05/22 09:55:58;;;;;;;4.70;1.80;;;22.60;82.80;;;;;;4941220;28;20045;-80
2022/05/22 09:58:29;;;;;;;3.38;1.70;;;22.40;86.00;;;;;;4940990;28;20074;-80
2022/05/22 10:01:48;;;;;;;6.40;1.90;;;22.40;81.40;;;;;;4940761;28;20081;-80
2022/05/22 10:04:52;;;;;;;;;;;;;;;;;;;;;
2022/05/22 10:08:20;;;;;;;7.35;1.50;;;22.40;79.30;;;;;;4974314;28;20054;-80
2022/05/22 10:11:51;;;;;;;6.78;1.65;;;22.20;79.10;;;;;;4959911;28;20090;-80
2022/05/22 10:14:51;;;;;;;5.25;1.85;;;22.00;92.20;;;;;;4959625;28;20053;-80
2022/05/22 10:17:44;;;;;;;6.80;1.83;;;21.90;90.60;;;;;;4956402;28;20046;-80
2022/05/22 10:20:51;;;;;;;6.90;1.70;;;22.10;89.60;;;;;;4940425;28;20051;-80
2022/05/22 10:23:29;;;;;;;5.20;1.35;;;22.10;92.30;;;;;;4940766;28;20055;-80
2022/05/22 10:26:06;;;;;;;5.82;1.92;;;22.20;90.00;;;;;;4941177;28;20074;-81
2022/05/22 10:28:54;;;;;;;3.05;1.42;;;22.40;87.30;;;;;;4941779;28;20454;-80
2022/05/22 10:31:40;;;;;;;6.13;1.58;;;22.60;92.40;;;;;;4957745;28;20082;-81
2022/05/22 10:34:43;;;;;;;4.22;1.60;;;22.60;85.90;;;;;;4943144;28;20509;-81
2022/05/22 10:44:33;;;;;;;6.17;1.70;;;22.90;84.60;;;;;;4967016;28;20046;-83
2022/05/22 10:47:02;;;;;;;8.13;1.80;;;22.80;69.40;;;;;;4959051;28;20278;-82
2022/05/22 10:50:06;;;;;;;5.95;1.20;;;22.70;76.20;;;;;;4973578;28;20074;-82
2022/05/22 10:52:55;;;;;;;5.13;1.33;;;22.60;71.10;;;;;;4971376;28;20062;-82
2022/05/22 10:55:56;;;;;;;;;;;;;;;;;;;;;
2022/05/22 10:58:35;;;;;;;4.82;1.40;;;22.80;84.30;;;;;;4973496;28;20051;-83
2022/05/22 11:04:27;;;;;;;6.43;1.42;;;23.20;78.40;;;;;;2440297;26;20049;-82
2022/05/22 11:07:28;;;;;;;7.55;2.08;;;23.50;67.20;;;;;;5010655;28;20050;-82
2022/05/22 11:10:51;;;;;;;4.20;1.27;;;23.50;71.20;;;;;;5031386;28;20104;-82
2022/05/22 11:13:29;;;;;;;3.33;1.33;;;23.50;71.70;;;;;;4957790;28;20049;-83
2022/05/22 11:20:25;;;;;;;2.03;1.10;;;23.30;70.90;;;;;;4993399;28;20058;-82
2022/05/22 11:23:20;;;;;;;4.57;1.23;;;23.20;64.60;;;;;;4986912;28;20059;-83
2022/05/22 11:26:34;;;;;;;6.70;1.33;;;23.20;65.00;;;;;;4973566;28;20039;-83
2022/05/22 11:29:50;;;;;;;4.43;1.40;;;23.30;63.80;;;;;;4973691;28;20098;-82
2022/05/22 11:39:22;;;;;;;5.07;1.30;;;23.60;63.30;;;;;;4968978;29;20152;-82
2022/05/22 11:46:01;;;;;;;4.57;1.40;;;22.30;63.70;;;;;;5012486;28;20109;-82
2022/05/22 11:49:00;;;;;;;7.90;1.40;;;21.90;69.00;;;;;;4996233;28;20105;-82
2022/05/22 11:54:46;;;;;;;3.58;1.17;;;21.30;75.20;;;;;;5140671;22;20870;-83
2022/05/22 12:04:56;;;;;;;6.75;1.65;;;21.30;81.60;;;;;;4902591;29;20043;-83
2022/05/22 12:08:12;;;;;;;4.88;1.42;;;21.20;78.00;;;;;;4994238;28;20051;-83
2022/05/22 12:11:24;;;;;;;6.70;1.30;;;21.00;78.10;;;;;;4993936;28;20043;-83
2022/05/22 12:14:47;;;;;;;7.28;1.40;;;21.00;83.90;;;;;;4994693;28;20041;-81
2022/05/22 12:17:56;;;;;;;10.73;1.55;;;21.00;90.50;;;;;;4933370;28;20046;-81
2022/05/22 12:20:42;;;;;;;5.00;1.30;;;21.00;92.30;;;;;;4983886;28;20054;-81
2022/05/22 12:23:26;;;;;;;8.25;1.42;;;21.00;90.40;;;;;;4983734;28;20039;-81
2022/05/22 12:26:08;;;;;;;6.57;1.45;;;21.00;90.20;;;;;;4984017;28;20042;-81
2022/05/22 12:29:00;;;;;;;;;;;21.00;90.70;;;;;;4986383;28;20137;-82
2022/05/22 12:31:35;;;;;;;9.30;1.33;;;20.90;85.20;;;;;;4968201;28;19922;-82
2022/05/22 12:34:09;;;;;;;5.70;1.38;;;20.90;90.00;;;;;;4987207;28;20042;-81
2022/05/22 12:36:37;;;;;;;6.13;1.23;;;21.00;90.40;;;;;;4987259;28;20085;-81
2022/05/22 12:39:07;;;;;;;4.07;1.05;;;20.90;92.40;;;;;;4987049;28;20058;-81
2022/05/22 12:41:51;;;;;;;5.32;1.63;;;20.90;91.90;;;;;;4987511;28;20034;-82
2022/05/22 12:44:20;;;;;;;6.80;1.45;;;20.90;92.70;;;;;;4987917;28;20074;-81
2022/05/22 12:47:17;;;;;;;4.95;1.23;;;20.80;91.50;;;;;;4987579;28;20070;-82
2022/05/22 12:49:55;;;;;;;2.88;1.00;;;20.70;91.60;;;;;;4978449;28;20050;-83
2022/05/22 12:52:32;;;;;;;5.55;1.73;;;20.60;94.00;;;;;;4978938;28;20045;-83
2022/05/22 12:55:18;;;;;;;6.05;1.38;;;20.60;95.80;;;;;;4995310;28;20062;-83
2022/05/22 12:57:56;;;;;;;3.25;0.93;;;20.60;97.00;;;;;;4994948;28;20042;-83
2022/05/22 13:00:41;;;;;;;4.93;1.60;;;20.70;93.90;;;;;;4994279;28;20038;-83
2022/05/22 13:03:22;;;;;;;5.70;1.38;;;20.70;91.20;;;;;;4995448;28;20054;-82
2022/05/22 13:06:02;;;;;;;5.70;0.90;;;20.80;95.60;;;;;;4995505;28;20078;-82
2022/05/22 13:08:37;;;;;;;2.95;1.02;;;20.80;93.70;;;;;;5000997;28;20042;-83
2022/05/22 13:11:09;;;;;;;5.15;0.82;;;20.90;92.80;;;;;;5002735;28;20090;-83
2022/05/22 13:13:50;;;;;;;4.25;1.13;;;21.10;93.60;;;;;;5003078;28;20069;-84
2022/05/22 13:16:34;;;;;;;3.60;1.60;;;21.30;87.80;;;;;;4980144;28;20045;-83
2022/05/22 13:19:00;;;;;;;1.65;0.93;;;21.70;89.10;;;;;;4977280;28;20386;-83
2022/05/22 13:21:35;;;;;;;2.72;1.05;;;21.90;89.80;;;;;;4976497;28;20041;-83
2022/05/22 13:24:07;;;;;;;3.38;1.02;;;22.00;88.80;;;;;;4976807;28;20034;-83
2022/05/22 13:26:33;;;;;;;4.25;1.83;;;21.80;85.00;;;;;;4985157;28;20038;-82
2022/05/22 13:29:14;;;;;;;3.13;1.15;;;21.70;85.50;;;;;;4995225;28;20081;-83
2022/05/22 13:31:56;;;;;;;3.97;1.38;;;21.70;85.70;;;;;;4996087;28;20038;-82
2022/05/22 13:34:33;;;;;;;4.68;1.35;;;21.50;83.00;;;;;;4996609;28;20066;-82
2022/05/22 13:37:06;;;;;;;6.05;0.98;;;21.40;87.10;;;;;;4997501;28;20439;-82
2022/05/22 13:40:38;;;;;;;5.60;1.30;;;21.30;86.60;;;;;;4996631;28;20047;-82
2022/05/22 13:44:04;;;;;;;5.10;1.33;;;21.40;85.40;;;;;;4997845;28;20050;-83
2022/05/22 13:47:15;;;;;;;5.03;1.40;;;21.40;87.50;;;;;;4966512;28;20051;-83
2022/05/22 13:53:23;;;;;;;4.47;1.08;;;22.10;84.40;;;;;;4983301;28;20046;-80
2022/05/22 13:55:56;;;;;;;3.95;1.13;;;22.60;80.00;;;;;;4983708;28;20045;-80
2022/05/22 13:58:48;;;;;;;2.63;1.10;;;22.90;80.80;;;;;;4995738;28;20034;-80
2022/05/22 14:01:17;;;;;;;5.15;1.20;;;23.00;83.70;;;;;;4995140;28;20046;-81
2022/05/22 14:04:24;;;;;;;6.10;1.88;;;23.00;78.10;;;;;;4998454;28;20045;-81
2022/05/22 14:07:23;;;;;;;8.15;1.88;;;22.80;80.90;;;;;;4957498;28;20057;-81
2022/05/22 14:10:21;;;;;;;4.07;1.25;;;22.70;76.80;;;;;;4976233;28;20034;-81
2022/05/22 14:13:12;;;;;;;3.28;0.70;;;22.70;79.40;;;;;;4976217;28;20405;-81
2022/05/22 14:15:51;;;;;;;3.22;0.80;;;22.50;72.10;;;;;;4976130;28;20046;-81
2022/05/22 14:18:23;;;;;;;3.97;1.13;;;22.20;77.60;;;;;;4979048;28;20402;-82
2022/05/22 14:21:06;;;;;;;3.05;0.80;;;22.00;81.50;;;;;;4976658;28;20038;-82
2022/05/22 14:27:46;;;;;;;1.77;1.08;;;21.80;83.10;;;;;;4972599;28;20129;-81